createdAt,value
2023-02-24T00:02:06.338Z,59.24
2023-02-24T00:04:40.921Z,59.92
2023-02-24T00:07:11.230Z,59.35
2023-02-24T00:09:40.339Z,59.04
2023-02-24T00:12:13.335Z,58.61
2023-02-24T00:14:45.670Z,58.36
2023-02-24T00:17:14.839Z,58.80
2023-02-24T00:19:44.075Z,59.47
2023-02-24T00:22:13.045Z,59.45
2023-02-24T00:24:41.154Z,59.00
2023-02-24T00:27:11.914Z,58.92
2023-02-24T00:29:42.320Z,59.17
2023-02-24T00:32:13.541Z,59.09
2023-02-24T00:34:43.408Z,59.29
2023-02-24T00:37:12.219Z,58.37
2023-02-24T00:39:41.703Z,59.01
2023-02-24T00:42:11.923Z,59.45
2023-02-24T00:44:49.736Z,59.22
2023-02-24T00:47:18.074Z,58.23
2023-02-24T00:49:46.668Z,58.85
2023-02-24T00:52:20.235Z,58.92
2023-02-24T00:54:49.897Z,59.07
2023-02-24T00:57:20.335Z,59.98
2023-02-24T00:59:49.991Z,59.87
2023-02-24T01:02:18.857Z,60.55
2023-02-24T01:04:46.922Z,60.22
2023-02-24T01:07:15.091Z,60.08
2023-02-24T01:09:44.459Z,60.20
2023-02-24T01:12:38.327Z,60.29
2023-02-24T01:15:10.121Z,60.21
2023-02-24T01:17:41.381Z,61.52
2023-02-24T01:20:21.711Z,61.09
2023-02-24T01:22:53.510Z,61.62
2023-02-24T01:25:22.886Z,61.95
2023-02-24T01:27:50.949Z,60.48
2023-02-24T01:30:19.472Z,60.44
2023-02-24T01:32:48.226Z,59.92
2023-02-24T01:35:17.058Z,59.71
2023-02-24T01:37:45.864Z,59.32
2023-02-24T01:40:21.684Z,58.14
2023-02-24T01:42:50.598Z,59.05
2023-02-24T01:45:25.506Z,59.21
2023-02-24T01:48:00.004Z,60.78
2023-02-24T01:50:28.889Z,60.15
2023-02-24T01:53:01.392Z,59.53
2023-02-24T01:55:38.133Z,59.04
2023-02-24T01:58:15.640Z,59.08
2023-02-24T02:00:47.919Z,57.99
2023-02-24T02:03:32.682Z,57.47
2023-02-24T02:06:04.677Z,58.46
2023-02-24T02:08:36.716Z,59.17
2023-02-24T02:11:10.307Z,58.51
2023-02-24T02:13:44.049Z,58.51
2023-02-24T02:16:27.416Z,59.11
2023-02-24T02:19:37.979Z,58.24
2023-02-24T02:22:35.344Z,59.43
2023-02-24T02:26:01.311Z,58.89
2023-02-24T02:29:15.720Z,59.14
2023-02-24T02:31:55.563Z,59.64
2023-02-24T02:34:57.828Z,58.94
2023-02-24T02:37:34.209Z,57.76
2023-02-24T02:40:23.173Z,57.78
2023-02-24T02:42:59.735Z,57.97
2023-02-24T02:45:47.794Z,57.47
2023-02-24T02:48:31.233Z,57.35
2023-02-24T02:51:06.077Z,57.19
2023-02-24T02:53:45.823Z,58.53
2023-02-24T02:56:26.778Z,58.59
2023-02-24T02:58:58.863Z,57.95
2023-02-24T03:01:32.395Z,59.64
2023-02-24T03:04:05.592Z,58.25
2023-02-24T03:06:39.849Z,57.44
2023-02-24T03:09:18.215Z,58.68
2023-02-24T03:11:54.383Z,59.82
2023-02-24T03:14:29.078Z,59.29
2023-02-24T03:17:00.062Z,59.66
2023-02-24T03:19:34.288Z,58.65
2023-02-24T03:22:22.104Z,58.27
2023-02-24T03:24:50.690Z,58.59
2023-02-24T03:27:26.658Z,59.65
2023-02-24T03:30:07.429Z,60.00
2023-02-24T03:32:55.107Z,60.78
2023-02-24T03:35:25.997Z,61.09
2023-02-24T03:37:57.862Z,61.26
2023-02-24T03:40:34.620Z,60.87
2023-02-24T03:43:09.319Z,59.85
2023-02-24T03:45:41.064Z,60.06
2023-02-24T03:48:12.147Z,59.49
2023-02-24T03:50:43.303Z,59.16
2023-02-24T03:53:38.877Z,58.05
2023-02-24T03:56:34.129Z,57.92
2023-02-24T03:59:28.618Z,57.20
2023-02-24T04:02:16.992Z,56.39
2023-02-24T04:05:16.730Z,56.56
2023-02-24T04:08:04.279Z,56.83
2023-02-24T04:10:58.647Z,56.91
2023-02-24T04:13:44.328Z,57.35
2023-02-24T04:16:50.289Z,57.28
2023-02-24T04:19:22.867Z,57.45
2023-02-24T04:21:51.755Z,56.91
2023-02-24T04:24:29.135Z,56.77
2023-02-24T04:27:00.976Z,57.48
2023-02-24T04:29:35.863Z,56.85
2023-02-24T04:32:09.104Z,57.17
2023-02-24T04:34:40.411Z,57.89
2023-02-24T04:37:09.596Z,57.52
2023-02-24T04:39:38.663Z,56.44
2023-02-24T04:42:11.147Z,57.01
2023-02-24T04:44:39.193Z,58.73
2023-02-24T04:47:07.386Z,59.89
2023-02-24T04:49:35.421Z,61.28
2023-02-24T04:52:03.470Z,61.36
2023-02-24T04:54:31.688Z,60.07
2023-02-24T04:56:59.977Z,60.11
2023-02-24T04:59:28.247Z,59.41
2023-02-24T05:02:01.611Z,59.25
2023-02-24T05:04:36.037Z,58.46
2023-02-24T05:07:04.823Z,57.65
2023-02-24T05:09:33.236Z,56.66
2023-02-24T05:12:01.509Z,57.68
2023-02-24T05:14:30.968Z,57.88
2023-02-24T05:17:00.588Z,57.42
2023-02-24T05:19:47.456Z,57.78
2023-02-24T05:22:17.764Z,57.61
2023-02-24T05:24:48.227Z,58.35
2023-02-24T05:27:17.601Z,58.47
2023-02-24T05:32:59.806Z,58.78
2023-02-24T05:35:27.954Z,58.91
2023-02-24T05:37:59.224Z,59.61
2023-02-24T05:40:28.477Z,59.33
2023-02-24T05:42:58.352Z,58.29
2023-02-24T05:45:30.492Z,57.72
2023-02-24T05:47:58.856Z,56.94
2023-02-24T05:50:27.434Z,56.95
2023-02-24T05:52:56.068Z,55.69
2023-02-24T05:55:24.294Z,55.43
2023-02-24T05:57:53.602Z,55.24
2023-02-24T06:00:25.988Z,55.43
2023-02-24T06:02:54.531Z,55.56
2023-02-24T06:05:25.921Z,55.43
2023-02-24T06:08:11.846Z,54.32
2023-02-24T06:10:40.573Z,54.64
2023-02-24T06:13:09.053Z,56.81
2023-02-24T06:15:37.592Z,56.76
2023-02-24T06:18:07.138Z,56.13
2023-02-24T06:20:35.405Z,56.33
2023-02-24T06:23:05.451Z,57.13
2023-02-24T06:25:34.254Z,56.31
2023-02-24T06:28:02.489Z,55.98
2023-02-24T06:30:30.664Z,55.91
2023-02-24T06:32:59.037Z,55.24
2023-02-24T06:35:27.788Z,54.57
2023-02-24T06:37:56.202Z,54.09
2023-02-24T06:40:24.689Z,54.23
2023-02-24T06:42:57.256Z,54.27
2023-02-24T06:45:26.485Z,54.68
2023-02-24T06:47:54.627Z,54.49
2023-02-24T06:50:23.524Z,54.48
2023-02-24T06:53:00.890Z,54.53
2023-02-24T06:55:29.572Z,53.79
2023-02-24T06:58:04.462Z,53.84
2023-02-24T07:00:37.399Z,55.16
2023-02-24T07:03:19.898Z,55.01
2023-02-24T07:05:54.392Z,53.92
2023-02-24T07:08:28.402Z,52.93
2023-02-24T07:10:59.845Z,53.68
2023-02-24T07:13:31.669Z,54.05
2023-02-24T07:16:06.955Z,53.76
2023-02-24T07:18:40.909Z,53.50
2023-02-24T07:21:16.358Z,53.14
2023-02-24T07:23:46.177Z,52.12
2023-02-24T07:26:17.362Z,50.89
2023-02-24T07:28:48.181Z,49.44
2023-02-24T07:31:19.767Z,47.97
2023-02-24T07:33:50.970Z,45.62
2023-02-24T07:36:23.480Z,43.80
2023-02-24T07:38:54.851Z,42.11
2023-02-24T07:41:23.815Z,40.68
2023-02-24T07:43:53.649Z,41.25
2023-02-24T07:46:28.159Z,41.25
2023-02-24T07:48:59.938Z,40.88
2023-02-24T07:51:29.855Z,40.87
2023-02-24T07:54:01.443Z,42.64
2023-02-24T07:56:31.157Z,44.71
2023-02-24T07:59:02.291Z,46.21
2023-02-24T08:01:39.068Z,45.96
2023-02-24T08:04:12.605Z,46.02
2023-02-24T08:06:48.026Z,46.87
2023-02-24T08:09:20.502Z,46.92
2023-02-24T08:11:54.549Z,46.47
2023-02-24T08:14:32.996Z,46.53
2023-02-24T08:17:05.595Z,46.41
2023-02-24T08:19:39.768Z,46.77
2023-02-24T08:22:19.921Z,47.11
2023-02-24T08:24:56.923Z,48.18
2023-02-24T08:27:30.478Z,47.78
2023-02-24T08:30:03.370Z,48.33
2023-02-24T08:32:37.836Z,48.50
2023-02-24T08:35:32.172Z,49.79
2023-02-24T08:38:07.844Z,50.52
2023-02-24T08:40:50.635Z,49.78
2023-02-24T08:43:34.884Z,49.65
2023-02-24T08:46:26.739Z,49.50
2023-02-24T08:49:00.751Z,48.57
2023-02-24T08:51:35.075Z,48.26
2023-02-24T08:54:11.448Z,47.97
2023-02-24T08:56:43.887Z,47.43
2023-02-24T08:59:29.522Z,47.78
2023-02-24T09:02:18.576Z,48.23
2023-02-24T09:05:14.976Z,49.91
2023-02-24T09:07:43.236Z,49.19
2023-02-24T09:10:17.860Z,49.24
2023-02-24T09:12:46.775Z,50.46
2023-02-24T09:15:15.853Z,51.09
2023-02-24T09:17:45.175Z,51.74
2023-02-24T09:20:39.661Z,53.29
2023-02-24T09:23:08.860Z,54.62
2023-02-24T09:25:44.588Z,54.74
2023-02-24T09:28:18.538Z,55.76
2023-02-24T09:30:56.369Z,58.07
2023-02-24T09:33:26.333Z,59.80
2023-02-24T09:36:10.313Z,60.29
2023-02-24T09:39:02.388Z,60.46
2023-02-24T09:42:18.277Z,59.20
2023-02-24T09:44:53.056Z,57.23
2023-02-24T09:47:40.807Z,58.44
2023-02-24T09:50:30.179Z,59.75
2023-02-24T09:53:17.479Z,61.59
2023-02-24T09:56:04.038Z,61.26
2023-02-24T09:58:55.755Z,61.19
2023-02-24T10:01:43.034Z,60.92
2023-02-24T10:04:49.496Z,59.62
2023-02-24T10:07:40.584Z,59.73
2023-02-24T10:10:19.796Z,60.49
2023-02-24T10:13:14.107Z,60.79
2023-02-24T10:15:57.992Z,60.60
2023-02-24T10:18:43.728Z,58.64
2023-02-24T10:21:49.950Z,58.55
2023-02-24T10:24:47.622Z,62.42
2023-02-24T10:27:25.116Z,62.91
2023-02-24T10:30:11.025Z,62.62
2023-02-24T10:32:58.929Z,62.04
2023-02-24T10:35:33.982Z,59.41
2023-02-24T10:38:06.068Z,60.06
2023-02-24T10:40:46.846Z,59.10
2023-02-24T10:43:19.181Z,58.17
2023-02-24T10:45:48.236Z,60.23
2023-02-24T10:48:40.691Z,59.90
2023-02-24T10:51:20.148Z,60.54
2023-02-24T10:54:14.746Z,63.53
2023-02-24T10:56:55.522Z,65.43
2023-02-24T10:59:48.458Z,65.98
2023-02-24T11:02:32.989Z,65.77
2023-02-24T11:05:27.453Z,65.69
2023-02-24T11:08:36.752Z,64.17
2023-02-24T11:11:25.711Z,63.61
2023-02-24T11:14:14.553Z,63.19
2023-02-24T11:17:07.730Z,63.06
2023-02-24T11:20:01.138Z,62.81
2023-02-24T11:22:36.249Z,63.11
2023-02-24T11:25:13.445Z,63.88
2023-02-24T11:27:43.624Z,64.89
2023-02-24T11:30:29.670Z,64.81
2023-02-24T11:33:16.419Z,64.25
2023-02-24T11:35:47.569Z,63.50
2023-02-24T11:38:41.044Z,62.70
2023-02-24T11:41:34.095Z,62.83
2023-02-24T11:44:14.969Z,62.85
2023-02-24T11:46:54.470Z,62.61
2023-02-24T11:49:25.360Z,61.23
2023-02-24T11:51:55.981Z,59.72
2023-02-24T11:54:26.486Z,59.89
2023-02-24T11:56:59.944Z,58.25
2023-02-24T11:59:31.236Z,56.41
2023-02-24T12:02:08.069Z,56.81
2023-02-24T12:05:13.843Z,56.64
2023-02-24T12:07:46.152Z,57.19
2023-02-24T12:10:25.322Z,56.65
2023-02-24T12:13:11.966Z,56.29
2023-02-24T12:15:48.799Z,55.85
2023-02-24T12:18:30.080Z,56.25
2023-02-24T12:21:31.104Z,55.95
2023-02-24T12:24:01.448Z,55.77
2023-02-24T12:26:55.997Z,55.10
2023-02-24T12:29:49.556Z,55.58
2023-02-24T12:32:46.717Z,54.93
2023-02-24T12:35:24.911Z,54.95
2023-02-24T12:38:16.428Z,54.40
2023-02-24T12:41:04.882Z,54.58
2023-02-24T12:43:42.695Z,54.61
2023-02-24T12:46:45.356Z,54.84
2023-02-24T12:49:37.395Z,54.63
2023-02-24T12:52:16.037Z,54.08
2023-02-24T12:55:07.425Z,53.04
2023-02-24T12:58:06.470Z,52.62
2023-02-24T13:00:40.281Z,53.20
2023-02-24T13:03:43.372Z,53.00
2023-02-24T13:06:36.747Z,53.57
2023-02-24T13:09:29.442Z,53.45
2023-02-24T13:12:13.019Z,53.95
2023-02-24T13:14:42.567Z,54.37
2023-02-24T13:17:10.838Z,54.49
2023-02-24T13:19:40.756Z,54.55
2023-02-24T13:22:12.213Z,54.34
2023-02-24T13:24:43.423Z,53.80
2023-02-24T13:27:14.886Z,53.55
2023-02-24T13:29:49.012Z,53.87
2023-02-24T13:32:39.204Z,53.35
2023-02-24T13:35:27.612Z,52.74
2023-02-24T13:37:56.071Z,52.57
2023-02-24T13:40:27.252Z,52.60
2023-02-24T13:42:58.866Z,52.50
2023-02-24T13:45:27.718Z,52.93
2023-02-24T13:48:33.169Z,53.05
2023-02-24T13:51:29.401Z,53.07
2023-02-24T13:54:10.018Z,53.34
2023-02-24T13:57:00.352Z,53.70
2023-02-24T13:59:47.065Z,54.38
2023-02-24T14:02:21.509Z,54.53
2023-02-24T14:04:56.155Z,54.02
2023-02-24T14:07:28.608Z,54.32
2023-02-24T14:10:01.207Z,54.40
2023-02-24T14:12:34.463Z,54.92
2023-02-24T14:15:05.086Z,54.54
2023-02-24T14:17:37.804Z,54.66
2023-02-24T14:20:22.069Z,54.50
2023-02-24T14:22:59.219Z,55.47
2023-02-24T14:25:30.965Z,55.53
2023-02-24T14:27:59.544Z,55.02
2023-02-24T14:30:27.576Z,54.93
2023-02-24T14:32:56.087Z,55.39
2023-02-24T14:35:36.150Z,54.97
2023-02-24T14:38:06.057Z,54.83
2023-02-24T14:40:34.230Z,55.13
2023-02-24T14:43:03.885Z,55.29
2023-02-24T14:45:32.118Z,55.24
2023-02-24T14:48:00.599Z,55.70
2023-02-24T14:50:34.183Z,55.42
2023-02-24T14:53:05.308Z,55.66
2023-02-24T14:55:37.755Z,55.74
2023-02-24T14:58:24.582Z,55.95
2023-02-24T15:01:24.067Z,56.22
2023-02-24T15:03:56.440Z,56.14
2023-02-24T15:06:31.322Z,56.04
2023-02-24T15:09:13.421Z,56.05
2023-02-24T15:11:42.225Z,55.78
2023-02-24T15:14:23.133Z,55.71
2023-02-24T15:16:55.333Z,54.85
2023-02-24T15:19:28.153Z,54.75
2023-02-24T15:21:56.287Z,54.73
2023-02-24T15:24:28.931Z,54.82
2023-02-24T15:27:00.510Z,55.01
2023-02-24T15:29:31.175Z,54.56
2023-02-24T15:32:04.288Z,54.90
2023-02-24T15:34:36.573Z,55.43
2023-02-24T15:37:23.233Z,56.16
2023-02-24T15:39:57.649Z,56.61
2023-02-24T15:42:33.817Z,56.78
2023-02-24T15:45:23.038Z,57.38
2023-02-24T15:47:53.850Z,58.12
2023-02-24T15:50:23.003Z,58.58
2023-02-24T15:52:51.375Z,59.20
2023-02-24T15:55:20.780Z,59.15
2023-02-24T15:57:58.508Z,58.77
2023-02-24T16:00:27.834Z,58.74
2023-02-24T16:02:55.744Z,58.31
2023-02-24T16:05:25.283Z,58.42
2023-02-24T16:07:54.983Z,59.22
2023-02-24T16:10:29.620Z,59.32
2023-02-24T16:13:02.376Z,58.90
2023-02-24T16:15:33.654Z,59.02
2023-02-24T16:18:02.831Z,58.47
2023-02-24T16:20:31.828Z,59.07
2023-02-24T16:23:05.212Z,59.30
2023-02-24T16:25:38.651Z,59.01
2023-02-24T16:28:07.080Z,59.79
2023-02-24T16:30:35.753Z,59.70
2023-02-24T16:33:04.556Z,58.96
2023-02-24T16:35:32.747Z,58.48
2023-02-24T16:38:01.084Z,59.36
2023-02-24T16:40:36.660Z,60.41
2023-02-24T16:43:05.222Z,60.49
2023-02-24T16:45:35.789Z,59.94
2023-02-24T16:48:14.266Z,60.37
2023-02-24T16:50:43.981Z,61.88
2023-02-24T16:53:18.832Z,61.45
2023-02-24T16:55:47.260Z,60.96
2023-02-24T16:58:16.336Z,61.25
2023-02-24T17:00:49.943Z,60.84
2023-02-24T17:03:25.626Z,61.23
2023-02-24T17:05:54.414Z,61.87
2023-02-24T17:08:23.137Z,62.61
2023-02-24T17:10:51.918Z,61.97
2023-02-24T17:13:22.024Z,61.93
2023-02-24T17:15:55.262Z,62.00
2023-02-24T17:18:24.757Z,62.02
2023-02-24T17:20:53.463Z,61.09
2023-02-24T17:23:21.562Z,60.53
2023-02-24T17:25:52.302Z,60.87
2023-02-24T17:28:20.581Z,61.71
2023-02-24T17:30:48.733Z,61.66
2023-02-24T17:33:17.215Z,61.31
2023-02-24T17:35:47.234Z,60.29
2023-02-24T17:38:16.839Z,60.60
2023-02-24T17:40:45.489Z,60.31
2023-02-24T17:43:13.798Z,60.39
2023-02-24T17:45:44.439Z,61.53
2023-02-24T17:48:13.521Z,61.35
2023-02-24T17:50:42.632Z,62.83
2023-02-24T17:53:10.589Z,61.53
2023-02-24T17:55:40.390Z,62.17
2023-02-24T17:58:11.334Z,62.87
2023-02-24T18:00:39.446Z,62.08
2023-02-24T18:03:07.539Z,60.67
2023-02-24T18:05:35.665Z,60.06
2023-02-24T18:08:03.716Z,60.01
2023-02-24T18:10:31.685Z,59.99
2023-02-24T18:12:59.830Z,59.51
2023-02-24T18:15:27.806Z,59.66
2023-02-24T18:17:55.793Z,59.66
2023-02-24T18:20:24.682Z,59.02
2023-02-24T18:22:52.853Z,59.14
2023-02-24T18:25:20.931Z,59.52
2023-02-24T18:27:48.945Z,60.21
2023-02-24T18:30:18.634Z,60.67
2023-02-24T18:32:47.594Z,61.39
2023-02-24T18:35:16.018Z,61.93
2023-02-24T18:37:44.145Z,62.56
2023-02-24T18:40:12.392Z,61.44
2023-02-24T18:42:41.641Z,61.98
2023-02-24T18:45:09.830Z,61.87
2023-02-24T18:47:37.976Z,61.77
2023-02-24T18:50:06.248Z,61.52
2023-02-24T18:52:34.862Z,60.89
2023-02-24T18:55:03.090Z,60.90
2023-02-24T18:57:31.619Z,61.97
2023-02-24T18:59:59.669Z,61.87
2023-02-24T19:02:28.297Z,61.01
2023-02-24T19:04:56.527Z,60.59
2023-02-24T19:07:25.024Z,60.06
2023-02-24T19:09:53.000Z,59.98
2023-02-24T19:12:21.551Z,61.45
2023-02-24T19:14:52.988Z,61.32
2023-02-24T19:17:20.969Z,60.55
2023-02-24T19:19:48.876Z,61.40
2023-02-24T19:22:16.870Z,62.30
2023-02-24T19:24:45.066Z,62.15
2023-02-24T19:27:14.260Z,62.20
2023-02-24T19:29:42.238Z,61.94
2023-02-24T19:32:10.305Z,62.08
2023-02-24T19:34:38.432Z,61.18
2023-02-24T19:37:06.441Z,60.60
2023-02-24T19:39:34.434Z,60.63
2023-02-24T19:42:03.096Z,60.76
2023-02-24T19:44:31.269Z,61.15
2023-02-24T19:46:59.288Z,61.07
2023-02-24T19:49:27.188Z,61.18
2023-02-24T19:51:56.002Z,61.19
2023-02-24T19:54:27.980Z,61.19
2023-02-24T19:56:57.992Z,61.07
2023-02-24T19:59:26.036Z,61.42
2023-02-24T20:01:54.723Z,61.23
2023-02-24T20:04:23.359Z,61.52
2023-02-24T20:06:51.399Z,61.70
2023-02-24T20:09:22.919Z,61.70
2023-02-24T20:11:51.374Z,61.40
2023-02-24T20:14:20.466Z,61.47
2023-02-24T20:16:48.609Z,61.63
2023-02-24T20:19:18.210Z,61.33
2023-02-24T20:21:46.367Z,61.27
2023-02-24T20:24:15.419Z,61.57
2023-02-24T20:26:47.265Z,61.70
2023-02-24T20:29:16.426Z,62.78
2023-02-24T20:31:46.518Z,63.60
2023-02-24T20:34:16.702Z,64.75
2023-02-24T20:36:45.098Z,64.88
2023-02-24T20:39:13.090Z,64.80
2023-02-24T20:41:41.670Z,64.69
2023-02-24T20:44:10.784Z,64.24
2023-02-24T20:46:39.060Z,64.47
2023-02-24T20:49:08.963Z,64.53
2023-02-24T20:51:37.573Z,63.90
2023-02-24T20:54:06.526Z,63.30
2023-02-24T20:56:36.569Z,62.58
2023-02-24T20:59:08.373Z,62.79
2023-02-24T21:01:36.936Z,63.52
2023-02-24T21:04:05.463Z,63.10
2023-02-24T21:06:33.563Z,62.42
2023-02-24T21:09:01.914Z,62.04
2023-02-24T21:11:30.403Z,61.20
2023-02-24T21:13:59.297Z,61.41
2023-02-24T21:16:28.099Z,61.81
2023-02-24T21:18:58.679Z,61.98
2023-02-24T21:21:27.283Z,61.94
2023-02-24T21:23:56.757Z,61.90
2023-02-24T21:26:27.056Z,62.16
2023-02-24T21:28:57.627Z,61.66
2023-02-24T21:31:26.618Z,62.80
2023-02-24T21:33:55.462Z,63.16
2023-02-24T21:36:25.988Z,61.83
2023-02-24T21:38:55.009Z,61.52
2023-02-24T21:41:23.920Z,61.92
2023-02-24T21:43:55.046Z,62.41
2023-02-24T21:46:28.276Z,61.86
2023-02-24T21:48:58.231Z,62.80
2023-02-24T21:51:27.167Z,63.22
2023-02-24T21:53:55.323Z,62.42
2023-02-24T21:56:24.898Z,63.66
2023-02-24T21:58:54.918Z,63.32
2023-02-24T22:01:25.004Z,63.49
2023-02-24T22:03:54.399Z,63.74
2023-02-24T22:06:22.885Z,62.39
2023-02-24T22:08:51.096Z,62.34
2023-02-24T22:11:19.204Z,62.76
2023-02-24T22:13:47.783Z,62.12
2023-02-24T22:16:18.339Z,62.27
2023-02-24T22:18:46.891Z,61.77
2023-02-24T22:21:18.856Z,61.65
2023-02-24T22:23:47.849Z,61.52
2023-02-24T22:26:16.956Z,60.93
2023-02-24T22:28:46.960Z,60.50
2023-02-24T22:31:16.431Z,60.32
2023-02-24T22:33:45.257Z,59.78
2023-02-24T22:36:14.551Z,59.69
2023-02-24T22:38:43.541Z,59.47
2023-02-24T22:41:18.165Z,60.04
2023-02-24T22:43:46.595Z,60.23
2023-02-24T22:46:16.245Z,60.46
2023-02-24T22:48:44.888Z,60.99
2023-02-24T22:51:13.995Z,61.56
2023-02-24T22:53:46.817Z,61.69
2023-02-24T22:56:16.677Z,62.33
2023-02-24T22:58:45.529Z,63.34
2023-02-24T23:01:15.836Z,64.36
2023-02-24T23:03:46.377Z,64.04
2023-02-24T23:06:16.094Z,63.51
2023-02-24T23:08:46.111Z,63.92
2023-02-24T23:11:14.309Z,64.05
2023-02-24T23:13:43.354Z,65.99
2023-02-24T23:16:14.085Z,67.41
2023-02-24T23:18:47.198Z,67.68
2023-02-24T23:21:16.287Z,66.35
2023-02-24T23:23:44.846Z,65.71
2023-02-24T23:26:12.820Z,65.81
2023-02-24T23:28:41.319Z,66.87
2023-02-24T23:31:10.069Z,67.46
2023-02-24T23:33:40.934Z,67.36
2023-02-24T23:36:09.717Z,68.13
2023-02-24T23:38:37.652Z,67.73
2023-02-24T23:41:09.474Z,65.63
2023-02-24T23:43:38.323Z,66.05
2023-02-24T23:46:07.794Z,65.50
2023-02-24T23:48:36.182Z,68.42
2023-02-24T23:51:05.711Z,70.30
2023-02-24T23:53:37.468Z,69.85
2023-02-24T23:56:08.886Z,68.95
2023-02-24T23:58:40.275Z,68.81
